Time,TemperatureF,DewpointF,PressureIn,WindDirection,WindDirectionDegrees,WindSpeedMPH,WindSpeedGustMPH,Humidity,HourlyPrecipIn,Conditions,Clouds,dailyrainin,SoftwareType,DateUTC
2014-12-19 00:02:00,-999.0,-99.9,-100.00,North,-999,0.0,0.0,-999,-99.99,,,-99.99,,2014-12-19 08:02:00,
2014-12-19 00:12:00,-999.0,-99.9,-100.00,North,-999,0.0,0.0,-999,-99.99,,,-99.99,,2014-12-19 08:12:00,
2014-12-19 00:22:00,-999.0,-99.9,-100.00,North,-999,0.0,0.0,-999,-99.99,,,-99.99,,2014-12-19 08:22:00,
2014-12-19 00:32:00,-999.0,-99.9,-100.00,North,-999,0.0,0.0,-999,-99.99,,,-99.99,,2014-12-19 08:32:00,
2014-12-19 00:42:00,-999.0,-99.9,-100.00,North,-999,0.0,0.0,-999,-99.99,,,-99.99,,2014-12-19 08:42:00,
2014-12-19 00:52:00,-999.0,-99.9,-100.00,SE,140,15.0,0.0,-999,-99.99,,,-99.99,,2014-12-19 08:52:00,
2014-12-19 01:03:00,-999.0,-99.9,-100.00,SE,140,15.0,0.0,-999,-99.99,,,-99.99,,2014-12-19 09:03:00,
2014-12-19 01:12:00,-999.0,-99.9,-100.00,SE,140,15.0,0.0,-999,-99.99,,,-99.99,,2014-12-19 09:12:00,
2014-12-19 01:22:00,-999.0,-99.9,-100.00,North,-999,0.0,0.0,-999,-99.99,,,-99.99,,2014-12-19 09:22:00,
2014-12-19 01:34:00,-999.0,-99.9,-100.00,North,-999,0.0,0.0,-999,-99.99,,,-99.99,,2014-12-19 09:34:00,
2014-12-19 01:43:00,-999.0,-99.9,-100.00,North,-999,0.0,0.0,-999,-99.99,,,-99.99,,2014-12-19 09:43:00,
2014-12-19 01:53:00,-999.0,-99.9,-100.00,North,-999,0.0,0.0,-999,-99.99,,,-99.99,,2014-12-19 09:53:00,
2014-12-19 02:04:00,-999.0,-99.9,-100.00,North,-999,0.0,0.0,-999,-99.99,,,-99.99,,2014-12-19 10:04:00,
2014-12-19 02:14:00,-999.0,-99.9,-100.00,North,-999,0.0,0.0,-999,-99.99,,,-99.99,,2014-12-19 10:14:00,
2014-12-19 02:23:00,-999.0,-99.9,-100.00,SSE,150,12.0,0.0,-999,-99.99,,,-99.99,,2014-12-19 10:23:00,
2014-12-19 02:34:00,-999.0,-99.9,-100.00,SSE,150,12.0,0.0,-999,-99.99,,,-99.99,,2014-12-19 10:34:00,
2014-12-19 02:44:00,-999.0,-99.9,-100.00,SSE,150,12.0,0.0,-999,-99.99,,,-99.99,,2014-12-19 10:44:00,
2014-12-19 02:53:00,-999.0,-99.9,-100.00,South,170,20.0,0.0,-999,-99.99,,,-99.99,,2014-12-19 10:53:00,
2014-12-19 03:03:00,-999.0,-99.9,-100.00,South,170,20.0,0.0,-999,-99.99,,,-99.99,,2014-12-19 11:03:00,
2014-12-19 03:12:00,-999.0,-99.9,-100.00,South,170,20.0,0.0,-999,-99.99,,,-99.99,,2014-12-19 11:12:00,
2014-12-19 03:23:00,-999.0,-99.9,-100.00,North,-999,0.0,0.0,-999,-99.99,,,-99.99,,2014-12-19 11:23:00,
2014-12-19 03:33:00,-999.0,-99.9,-100.00,North,-999,0.0,0.0,-999,-99.99,,,-99.99,,2014-12-19 11:33:00,
2014-12-19 03:43:00,-999.0,-99.9,-100.00,North,-999,0.0,0.0,-999,-99.99,,,-99.99,,2014-12-19 11:43:00,
2014-12-19 03:53:00,-999.0,-99.9,-100.00,North,-999,0.0,25.0,-999,-99.99,,,-99.99,,2014-12-19 11:53:00,
2014-12-19 04:03:00,-999.0,-99.9,-100.00,North,-999,0.0,25.0,-999,-99.99,,,-99.99,,2014-12-19 12:03:00,
2014-12-19 04:13:00,-999.0,-99.9,-100.00,North,-999,0.0,25.0,-999,-99.99,,,-99.99,,2014-12-19 12:13:00,
2014-12-19 04:22:00,-999.0,-99.9,-100.00,WSW,240,22.0,0.0,-999,-99.99,,,-99.99,,2014-12-19 12:22:00,
2014-12-19 04:32:00,-999.0,-99.9,-100.00,WSW,240,22.0,0.0,-999,-99.99,,,-99.99,,2014-12-19 12:32:00,
2014-12-19 04:43:00,-999.0,-99.9,-100.00,WSW,240,22.0,0.0,-999,-99.99,,,-99.99,,2014-12-19 12:43:00,
2014-12-19 04:53:00,-999.0,-99.9,-100.00,SW,230,10.0,0.0,-999,-99.99,,,-99.99,,2014-12-19 12:53:00,
2014-12-19 05:02:00,-999.0,-99.9,-100.00,SW,230,10.0,0.0,-999,-99.99,,,-99.99,,2014-12-19 13:02:00,
2014-12-19 05:12:00,-999.0,-99.9,-100.00,SW,230,10.0,0.0,-999,-99.99,,,-99.99,,2014-12-19 13:12:00,
2014-12-19 05:22:00,-999.0,-99.9,-100.00,North,-999,0.0,0.0,-999,-99.99,,,-99.99,,2014-12-19 13:22:00,
2014-12-19 05:33:00,-999.0,-99.9,-100.00,North,-999,0.0,0.0,-999,-99.99,,,-99.99,,2014-12-19 13:33:00,
2014-12-19 05:42:00,-999.0,-99.9,-100.00,North,-999,0.0,0.0,-999,-99.99,,,-99.99,,2014-12-19 13:42:00,
2014-12-19 05:52:00,-999.0,-99.9,-100.00,North,-999,0.0,0.0,-999,-99.99,,,-99.99,,2014-12-19 13:52:00,
2014-12-19 06:02:00,-999.0,-99.9,-100.00,North,-999,0.0,0.0,-999,-99.99,,,-99.99,,2014-12-19 14:02:00,
2014-12-19 06:12:00,-999.0,-99.9,-100.00,North,-999,0.0,0.0,-999,-99.99,,,-99.99,,2014-12-19 14:12:00,
2014-12-19 06:23:00,-999.0,-99.9,-100.00,North,-999,0.0,0.0,-999,-99.99,,,-99.99,,2014-12-19 14:23:00,
2014-12-19 06:32:00,-999.0,-99.9,-100.00,North,-999,0.0,0.0,-999,-99.99,,,-99.99,,2014-12-19 14:32:00,
2014-12-19 06:42:00,-999.0,-99.9,-100.00,North,-999,0.0,0.0,-999,-99.99,,,-99.99,,2014-12-19 14:42:00,
2014-12-19 06:45:00,-999.0,-99.9,-100.00,North,-999,0.0,0.0,-999,-99.99,,,-99.99,,2014-12-19 14:45:00,
2014-12-19 06:53:00,-999.0,-99.9,-100.00,SSE,150,8.0,0.0,-999,-99.99,,,-99.99,,2014-12-19 14:53:00,
2014-12-19 07:02:00,-999.0,-99.9,-100.00,SSE,150,8.0,0.0,-999,-99.99,,,-99.99,,2014-12-19 15:02:00,
2014-12-19 07:12:00,-999.0,-99.9,-100.00,SSE,150,8.0,0.0,-999,-99.99,,,-99.99,,2014-12-19 15:12:00,
2014-12-19 07:22:00,-999.0,-99.9,-100.00,North,-999,0.0,0.0,-999,-99.99,,,-99.99,,2014-12-19 15:22:00,
2014-12-19 07:34:00,-999.0,-99.9,-100.00,North,-999,0.0,0.0,-999,-99.99,,,-99.99,,2014-12-19 15:34:00,
2014-12-19 07:54:00,-999.0,-99.9,-100.00,WSW,240,13.0,18.0,-999,-99.99,,,-99.99,,2014-12-19 15:54:00,
2014-12-19 08:04:00,-999.0,-99.9,-100.00,WSW,240,13.0,18.0,-999,-99.99,,,-99.99,,2014-12-19 16:04:00,
2014-12-19 08:13:00,-999.0,-99.9,-100.00,WSW,240,13.0,18.0,-999,-99.99,,,-99.99,,2014-12-19 16:13:00,
2014-12-19 08:24:00,-999.0,-99.9,-100.00,North,-999,0.0,0.0,-999,-99.99,,,-99.99,,2014-12-19 16:24:00,
2014-12-19 08:34:00,-999.0,-99.9,-100.00,North,-999,0.0,0.0,-999,-99.99,,,-99.99,,2014-12-19 16:34:00,
2014-12-19 08:44:00,-999.0,-99.9,-100.00,North,-999,0.0,0.0,-999,-99.99,,,-99.99,,2014-12-19 16:44:00,
2014-12-19 08:54:00,-999.0,-99.9,-100.00,SSE,150,12.0,0.0,-999,-99.99,,,-99.99,,2014-12-19 16:54:00,
2014-12-19 09:03:00,-999.0,-99.9,-100.00,SSE,150,12.0,0.0,-999,-99.99,,,-99.99,,2014-12-19 17:03:00,
2014-12-19 09:13:00,-999.0,-99.9,-100.00,SSE,150,12.0,0.0,-999,-99.99,,,-99.99,,2014-12-19 17:13:00,
2014-12-19 09:23:00,-999.0,-99.9,-100.00,SSE,150,12.0,0.0,-999,-99.99,,,-99.99,,2014-12-19 17:23:00,
2014-12-19 09:33:00,-999.0,-99.9,-100.00,SSE,150,12.0,0.0,-999,-99.99,,,-99.99,,2014-12-19 17:33:00,
2014-12-19 09:43:00,-999.0,-99.9,-100.00,SSE,150,12.0,0.0,-999,-99.99,,,-99.99,,2014-12-19 17:43:00,
2014-12-19 09:53:00,-999.0,-99.9,-100.00,SSE,150,12.0,0.0,-999,-99.99,,,-99.99,,2014-12-19 17:53:00,
2014-12-19 10:03:00,-999.0,-99.9,-100.00,SSE,150,12.0,0.0,-999,-99.99,,,-99.99,,2014-12-19 18:03:00,
2014-12-19 10:13:00,-999.0,-99.9,-100.00,SSE,150,12.0,0.0,-999,-99.99,,,-99.99,,2014-12-19 18:13:00,
2014-12-19 10:23:00,-999.0,-99.9,-100.00,SSE,150,14.0,0.0,-999,-99.99,,,-99.99,,2014-12-19 18:23:00,
2014-12-19 10:33:00,-999.0,-99.9,-100.00,SSE,150,14.0,0.0,-999,-99.99,,,-99.99,,2014-12-19 18:33:00,
2014-12-19 10:43:00,-999.0,-99.9,-100.00,SSE,150,14.0,0.0,-999,-99.99,,,-99.99,,2014-12-19 18:43:00,
2014-12-19 10:53:00,-999.0,-99.9,-100.00,North,-999,0.0,0.0,-999,-99.99,,,-99.99,,2014-12-19 18:53:00,
2014-12-19 11:03:00,-999.0,-99.9,-100.00,North,-999,0.0,0.0,-999,-99.99,,,-99.99,,2014-12-19 19:03:00,
2014-12-19 11:13:00,-999.0,-99.9,-100.00,North,-999,0.0,0.0,-999,-99.99,,,-99.99,,2014-12-19 19:13:00,
2014-12-19 11:23:00,-999.0,-99.9,-100.00,North,-999,0.0,0.0,-999,-99.99,,,-99.99,,2014-12-19 19:23:00,
2014-12-19 11:32:00,-999.0,-99.9,-100.00,North,-999,0.0,0.0,-999,-99.99,,,-99.99,,2014-12-19 19:32:00,
2014-12-19 11:42:00,-999.0,-99.9,-100.00,North,-999,0.0,0.0,-999,-99.99,,,-99.99,,2014-12-19 19:42:00,
2014-12-19 11:53:00,-999.0,-99.9,-100.00,SSE,160,8.0,0.0,-999,-99.99,,,-99.99,,2014-12-19 19:53:00,
2014-12-19 12:02:00,-999.0,-99.9,-100.00,SSE,160,8.0,0.0,-999,-99.99,,,-99.99,,2014-12-19 20:02:00,
2014-12-19 12:12:00,-999.0,-99.9,-100.00,SSE,160,8.0,0.0,-999,-99.99,,,-99.99,,2014-12-19 20:12:00,
2014-12-19 12:23:00,-999.0,-99.9,-100.00,North,-999,0.0,0.0,-999,-99.99,,,-99.99,,2014-12-19 20:23:00,
2014-12-19 12:33:00,-999.0,-99.9,-100.00,North,-999,0.0,0.0,-999,-99.99,,,-99.99,,2014-12-19 20:33:00,
2014-12-19 12:42:00,-999.0,-99.9,-100.00,North,-999,0.0,0.0,-999,-99.99,,,-99.99,,2014-12-19 20:42:00,
2014-12-19 12:53:00,-999.0,-99.9,-100.00,SSE,160,10.0,0.0,-999,-99.99,,,-99.99,,2014-12-19 20:53:00,
2014-12-19 13:02:00,-999.0,-99.9,-100.00,SSE,160,10.0,0.0,-999,-99.99,,,-99.99,,2014-12-19 21:02:00,
2014-12-19 13:12:00,-999.0,-99.9,-100.00,SSE,160,10.0,0.0,-999,-99.99,,,-99.99,,2014-12-19 21:12:00,
2014-12-19 13:22:00,-999.0,-99.9,-100.00,SE,140,3.0,0.0,-999,-99.99,,,-99.99,,2014-12-19 21:22:00,
2014-12-19 13:34:00,-999.0,-99.9,-100.00,SE,140,3.0,0.0,-999,-99.99,,,-99.99,,2014-12-19 21:34:00,
2014-12-19 13:43:00,-999.0,-99.9,-100.00,SE,140,3.0,0.0,-999,-99.99,,,-99.99,,2014-12-19 21:43:00,
2014-12-19 13:54:00,-999.0,-99.9,-100.00,South,170,12.0,0.0,-999,-99.99,,,-99.99,,2014-12-19 21:54:00,
2014-12-19 14:05:00,-999.0,-99.9,-100.00,South,170,12.0,0.0,-999,-99.99,,,-99.99,,2014-12-19 22:05:00,
2014-12-19 14:14:00,-999.0,-99.9,-100.00,South,170,12.0,0.0,-999,-99.99,,,-99.99,,2014-12-19 22:14:00,
2014-12-19 14:24:00,-999.0,-99.9,-100.00,North,-999,0.0,0.0,-999,-99.99,,,-99.99,,2014-12-19 22:24:00,
2014-12-19 14:34:00,-999.0,-99.9,-100.00,North,-999,0.0,0.0,-999,-99.99,,,-99.99,,2014-12-19 22:34:00,
2014-12-19 14:43:00,-999.0,-99.9,-100.00,North,-999,0.0,0.0,-999,-99.99,,,-99.99,,2014-12-19 22:43:00,
2014-12-19 14:54:00,-999.0,-99.9,-100.00,North,-999,0.0,0.0,-999,-99.99,,,-99.99,,2014-12-19 22:54:00,
2014-12-19 15:03:00,-999.0,-99.9,-100.00,North,-999,0.0,0.0,-999,-99.99,,,-99.99,,2014-12-19 23:03:00,
2014-12-19 15:13:00,-999.0,-99.9,-100.00,North,-999,0.0,0.0,-999,-99.99,,,-99.99,,2014-12-19 23:13:00,
2014-12-19 15:22:00,-999.0,-99.9,-100.00,SSE,160,8.0,0.0,-999,-99.99,,,-99.99,,2014-12-19 23:22:00,
2014-12-19 15:33:00,-999.0,-99.9,-100.00,SSE,160,8.0,0.0,-999,-99.99,,,-99.99,,2014-12-19 23:33:00,
2014-12-19 15:43:00,-999.0,-99.9,-100.00,SSE,160,8.0,0.0,-999,-99.99,,,-99.99,,2014-12-19 23:43:00,
2014-12-19 15:54:00,-999.0,-99.9,-100.00,ESE,120,8.0,0.0,-999,-99.99,,,-99.99,,2014-12-19 23:54:00,
2014-12-19 16:02:00,-999.0,-99.9,-100.00,ESE,120,8.0,0.0,-999,-99.99,,,-99.99,,2014-12-20 00:02:00,
2014-12-19 16:12:00,-999.0,-99.9,-100.00,ESE,120,8.0,0.0,-999,-99.99,,,-99.99,,2014-12-20 00:12:00,
2014-12-19 16:22:00,-999.0,-99.9,-100.00,SE,140,6.0,0.0,-999,-99.99,,,-99.99,,2014-12-20 00:22:00,
2014-12-19 16:32:00,-999.0,-99.9,-100.00,SE,140,6.0,0.0,-999,-99.99,,,-99.99,,2014-12-20 00:32:00,
2014-12-19 16:43:00,-999.0,-99.9,-100.00,SE,140,6.0,0.0,-999,-99.99,,,-99.99,,2014-12-20 00:43:00,
2014-12-19 16:52:00,-999.0,-99.9,-100.00,SSE,150,13.0,0.0,-999,-99.99,,,-99.99,,2014-12-20 00:52:00,
2014-12-19 17:02:00,-999.0,-99.9,-100.00,SSE,150,13.0,0.0,-999,-99.99,,,-99.99,,2014-12-20 01:02:00,
2014-12-19 17:12:00,-999.0,-99.9,-100.00,SSE,150,13.0,0.0,-999,-99.99,,,-99.99,,2014-12-20 01:12:00,
2014-12-19 17:22:00,-999.0,-99.9,-100.00,SE,140,12.0,0.0,-999,-99.99,,,-99.99,,2014-12-20 01:22:00,
2014-12-19 17:32:00,-999.0,-99.9,-100.00,SE,140,12.0,0.0,-999,-99.99,,,-99.99,,2014-12-20 01:32:00,
2014-12-19 17:42:00,-999.0,-99.9,-100.00,SE,140,12.0,0.0,-999,-99.99,,,-99.99,,2014-12-20 01:42:00,
2014-12-19 17:52:00,-999.0,-99.9,-100.00,SSE,150,14.0,0.0,-999,-99.99,,,-99.99,,2014-12-20 01:52:00,
2014-12-19 18:02:00,-999.0,-99.9,-100.00,SSE,150,14.0,0.0,-999,-99.99,,,-99.99,,2014-12-20 02:02:00,
2014-12-19 18:12:00,-999.0,-99.9,-100.00,SSE,150,14.0,0.0,-999,-99.99,,,-99.99,,2014-12-20 02:12:00,
2014-12-19 18:22:00,-999.0,-99.9,-100.00,North,-999,0.0,0.0,-999,-99.99,,,-99.99,,2014-12-20 02:22:00,
2014-12-19 18:32:00,-999.0,-99.9,-100.00,North,-999,0.0,0.0,-999,-99.99,,,-99.99,,2014-12-20 02:32:00,
2014-12-19 18:43:00,-999.0,-99.9,-100.00,North,-999,0.0,0.0,-999,-99.99,,,-99.99,,2014-12-20 02:43:00,
2014-12-19 18:53:00,-999.0,-99.9,-100.00,North,-999,0.0,0.0,-999,-99.99,,,-99.99,,2014-12-20 02:53:00,
2014-12-19 19:02:00,-999.0,-99.9,-100.00,North,-999,0.0,0.0,-999,-99.99,,,-99.99,,2014-12-20 03:02:00,
2014-12-19 19:12:00,-999.0,-99.9,-100.00,North,-999,0.0,0.0,-999,-99.99,,,-99.99,,2014-12-20 03:12:00,
2014-12-19 19:22:00,-999.0,-99.9,-100.00,SE,130,7.0,0.0,-999,-99.99,,,-99.99,,2014-12-20 03:22:00,
2014-12-19 19:33:00,-999.0,-99.9,-100.00,SE,130,7.0,0.0,-999,-99.99,,,-99.99,,2014-12-20 03:33:00,
2014-12-19 19:44:00,-999.0,-99.9,-100.00,SE,130,7.0,0.0,-999,-99.99,,,-99.99,,2014-12-20 03:44:00,
2014-12-19 20:23:00,-999.0,-99.9,-100.00,SSE,150,10.0,0.0,-999,-99.99,,,-99.99,,2014-12-20 04:23:00,
2014-12-19 20:33:00,-999.0,-99.9,-100.00,SSE,150,10.0,0.0,-999,-99.99,,,-99.99,,2014-12-20 04:33:00,
2014-12-19 20:43:00,-999.0,-99.9,-100.00,SSE,150,10.0,0.0,-999,-99.99,,,-99.99,,2014-12-20 04:43:00,
2014-12-19 20:53:00,-999.0,-99.9,-100.00,SSE,160,16.0,0.0,-999,-99.99,,,-99.99,,2014-12-20 04:53:00,
2014-12-19 21:03:00,-999.0,-99.9,-100.00,SSE,160,16.0,0.0,-999,-99.99,,,-99.99,,2014-12-20 05:03:00,
2014-12-19 21:13:00,-999.0,-99.9,-100.00,SSE,160,16.0,0.0,-999,-99.99,,,-99.99,,2014-12-20 05:13:00,
2014-12-19 21:23:00,-999.0,-99.9,-100.00,North,-999,0.0,0.0,-999,-99.99,,,-99.99,,2014-12-20 05:23:00,
2014-12-19 21:33:00,-999.0,-99.9,-100.00,North,-999,0.0,0.0,-999,-99.99,,,-99.99,,2014-12-20 05:33:00,
2014-12-19 21:43:00,-999.0,-99.9,-100.00,North,-999,0.0,0.0,-999,-99.99,,,-99.99,,2014-12-20 05:43:00,
2014-12-19 21:53:00,-999.0,-99.9,-100.00,North,-999,0.0,0.0,-999,-99.99,,,-99.99,,2014-12-20 05:53:00,